Check out our new PWSWeather beta!
PWSweather.com
Personal Weather Stations
Station Observations

PoschiavoCH

Lat: 46.31962499999999, Lon: 10.066551000000004

Elevation: 3517

Station Type: WH 1080

http://www.meteoposchiavo.com

High Low Average
Temperature 47.0°F8.3°C 38.0°F3.3°C 41.8°F5.4°C
Dew Point 42.0°F5.6°C 32.7°F0.4°C 37.6°F3.1°C
Winds 4.6 mph 7.4 kmh Calm Calm 1.0 mph SSE1.6 kmh SSE
Wind Gusts 6.9 mph11.1 kmh -- 1.0 mph1.6 kmh
Humidity 98% 60% 85%
Pressure 26.61 in901.1 mb 26.36 in892.7 mb -
Precipitation 0.00 in0.0 mm - -
Hour Temp Dew Point Humidity Winds Wind Gusts Pressure Precip Precip Rate Daily Precip Total
12:00 AM 39.0°F3.9°C 33.0°F0.6°C 79% Calm Calm -- 26.61 in901.1 mb - 0.00 in0.0 mm 0.00 in0.0 mm
12:10 AM 39.0°F3.9°C 33.4°F0.8°C 80% Calm Calm -- 26.60 in900.8 mb - 0.00 in0.0 mm 0.00 in0.0 mm
12:15 AM 39.0°F3.9°C 33.0°F0.6°C 79% Calm Calm -- 26.60 in900.8 mb - 0.00 in0.0 mm 0.00 in0.0 mm
12:20 AM 39.0°F3.9°C 34.0°F1.1°C 82% Calm Calm -- 26.60 in900.8 mb - 0.00 in0.0 mm 0.00 in0.0 mm
12:25 AM 39.0°F3.9°C 34.0°F1.1°C 82% Calm Calm -- 26.60 in900.8 mb - 0.00 in0.0 mm 0.00 in0.0 mm
12:30 AM 38.0°F3.3°C 33.6°F0.9°C 84% Calm Calm -- 26.59 in900.4 mb - 0.00 in0.0 mm 0.00 in0.0 mm
12:35 AM 38.0°F3.3°C 33.0°F0.6°C 82% Calm Calm -- 26.60 in900.8 mb - 0.00 in0.0 mm 0.00 in0.0 mm
12:40 AM 38.0°F3.3°C 32.7°F0.4°C 81% Calm Calm -- 26.60 in900.8 mb - 0.00 in0.0 mm 0.00 in0.0 mm
12:45 AM 38.0°F3.3°C 33.3°F0.7°C 83% Calm Calm -- 26.60 in900.8 mb - 0.00 in0.0 mm 0.00 in0.0 mm
12:50 AM 39.0°F3.9°C 33.0°F0.6°C 79% Calm Calm -- 26.60 in900.8 mb - 0.00 in0.0 mm 0.00 in0.0 mm
12:55 AM 39.0°F3.9°C 34.0°F1.1°C 82% Calm Calm -- 26.59 in900.4 mb - 0.00 in0.0 mm 0.00 in0.0 mm
01:00 AM 39.0°F3.9°C 34.0°F1.1°C 82% Calm Calm -- 26.60 in900.8 mb - 0.00 in0.0 mm 0.00 in0.0 mm
01:10 AM 39.0°F3.9°C 33.7°F0.9°C 81% Calm Calm -- 26.60 in900.8 mb - 0.00 in0.0 mm 0.00 in0.0 mm
01:15 AM 39.0°F3.9°C 33.7°F0.9°C 81% Calm Calm -- 26.59 in900.4 mb - 0.00 in0.0 mm 0.00 in0.0 mm
01:20 AM 40.0°F4.4°C 34.6°F1.4°C 81% Calm Calm -- 26.59 in900.4 mb - 0.00 in0.0 mm 0.00 in0.0 mm
01:25 AM 40.0°F4.4°C 34.3°F1.3°C 80% Calm Calm -- 26.59 in900.4 mb - 0.00 in0.0 mm 0.00 in0.0 mm
01:30 AM 40.0°F4.4°C 34.3°F1.3°C 80% Calm Calm -- 26.59 in900.4 mb - 0.00 in0.0 mm 0.00 in0.0 mm
01:35 AM 40.0°F4.4°C 34.6°F1.4°C 81% Calm Calm -- 26.58 in900.1 mb - 0.00 in0.0 mm 0.00 in0.0 mm
01:40 AM 40.0°F4.4°C 34.6°F1.4°C 81% Calm Calm -- 26.59 in900.4 mb - 0.00 in0.0 mm 0.00 in0.0 mm
01:45 AM 40.0°F4.4°C 34.3°F1.3°C 80% Calm Calm -- 26.59 in900.4 mb - 0.00 in0.0 mm 0.00 in0.0 mm
01:50 AM 40.0°F4.4°C 33.7°F0.9°C 78% Calm Calm -- 26.58 in900.1 mb - 0.00 in0.0 mm 0.00 in0.0 mm
01:55 AM 41.0°F5.0°C 35.9°F2.2°C 82% Calm Calm -- 26.58 in900.1 mb - 0.00 in0.0 mm 0.00 in0.0 mm
02:00 AM 41.0°F5.0°C 34.7°F1.5°C 78% Calm Calm -- 26.57 in899.8 mb - 0.00 in0.0 mm 0.00 in0.0 mm
02:10 AM 40.0°F4.4°C 34.3°F1.3°C 80% Calm Calm -- 26.57 in899.8 mb - 0.00 in0.0 mm 0.00 in0.0 mm
02:15 AM 40.0°F4.4°C 33.4°F0.8°C 77% Calm Calm -- 26.57 in899.8 mb - 0.00 in0.0 mm 0.00 in0.0 mm
02:20 AM 40.0°F4.4°C 33.0°F0.6°C 76% Calm Calm -- 26.57 in899.8 mb - 0.00 in0.0 mm 0.00 in0.0 mm
02:25 AM 40.0°F4.4°C 33.4°F0.8°C 77% Calm Calm -- 26.58 in900.1 mb - 0.00 in0.0 mm 0.00 in0.0 mm
02:30 AM 40.0°F4.4°C 34.9°F1.6°C 82% Calm Calm -- 26.57 in899.8 mb - 0.00 in0.0 mm 0.00 in0.0 mm
02:35 AM 40.0°F4.4°C 35.3°F1.8°C 83% Calm Calm -- 26.57 in899.8 mb - 0.00 in0.0 mm 0.00 in0.0 mm
02:40 AM 39.0°F3.9°C 34.0°F1.1°C 82% Calm Calm -- 26.56 in899.4 mb - 0.00 in0.0 mm 0.00 in0.0 mm
02:45 AM 39.0°F3.9°C 32.7°F0.4°C 78% Calm Calm -- 26.57 in899.8 mb - 0.00 in0.0 mm 0.00 in0.0 mm
02:50 AM 39.4°F4.1°C 33.1°F0.6°C 78% Calm Calm -- 26.57 in899.8 mb - 0.00 in0.0 mm 0.00 in0.0 mm
02:55 AM 40.0°F4.4°C 33.4°F0.8°C 77% Calm Calm -- 26.57 in899.8 mb - 0.00 in0.0 mm 0.00 in0.0 mm
03:00 AM 40.0°F4.4°C 33.7°F0.9°C 78% Calm Calm -- 26.57 in899.8 mb - 0.00 in0.0 mm 0.00 in0.0 mm
03:10 AM 39.0°F3.9°C 33.0°F0.6°C 79% Calm Calm -- 26.57 in899.8 mb - 0.00 in0.0 mm 0.00 in0.0 mm
03:15 AM 39.0°F3.9°C 33.0°F0.6°C 79% Calm Calm -- 26.57 in899.8 mb - 0.00 in0.0 mm 0.00 in0.0 mm
03:20 AM 39.0°F3.9°C 33.4°F0.8°C 80% Calm Calm -- 26.57 in899.8 mb - 0.00 in0.0 mm 0.00 in0.0 mm
03:25 AM 39.0°F3.9°C 33.4°F0.8°C 80% Calm Calm -- 26.57 in899.8 mb - 0.00 in0.0 mm 0.00 in0.0 mm
03:30 AM 39.0°F3.9°C 33.4°F0.8°C 80% Calm Calm -- 26.57 in899.8 mb - 0.00 in0.0 mm 0.00 in0.0 mm
03:35 AM 39.0°F3.9°C 32.7°F0.4°C 78% Calm Calm -- 26.56 in899.4 mb - 0.00 in0.0 mm 0.00 in0.0 mm
03:40 AM 40.0°F4.4°C 33.7°F0.9°C 78% Calm Calm -- 26.56 in899.4 mb - 0.00 in0.0 mm 0.00 in0.0 mm
03:45 AM 40.0°F4.4°C 34.3°F1.3°C 80% Calm Calm -- 26.56 in899.4 mb - 0.00 in0.0 mm 0.00 in0.0 mm
03:50 AM 40.0°F4.4°C 34.3°F1.3°C 80% Calm Calm -- 26.56 in899.4 mb - 0.00 in0.0 mm 0.00 in0.0 mm
03:55 AM 40.0°F4.4°C 35.6°F2.0°C 84% Calm Calm -- 26.56 in899.4 mb - 0.00 in0.0 mm 0.00 in0.0 mm
04:00 AM 40.0°F4.4°C 36.2°F2.3°C 86% Calm Calm -- 26.56 in899.4 mb - 0.00 in0.0 mm 0.00 in0.0 mm
04:10 AM 40.0°F4.4°C 34.0°F1.1°C 79% Calm Calm -- 26.55 in899.1 mb - 0.00 in0.0 mm 0.00 in0.0 mm
04:15 AM 39.0°F3.9°C 33.4°F0.8°C 80% Calm Calm -- 26.56 in899.4 mb - 0.00 in0.0 mm 0.00 in0.0 mm
04:20 AM 39.0°F3.9°C 34.0°F1.1°C 82% Calm Calm -- 26.55 in899.1 mb - 0.00 in0.0 mm 0.00 in0.0 mm
04:25 AM 39.0°F3.9°C 33.4°F0.8°C 80% Calm Calm -- 26.55 in899.1 mb - 0.00 in0.0 mm 0.00 in0.0 mm
04:30 AM 39.0°F3.9°C 34.0°F1.1°C 82% Calm Calm -- 26.55 in899.1 mb - 0.00 in0.0 mm 0.00 in0.0 mm
04:35 AM 39.0°F3.9°C 34.6°F1.4°C 84% Calm Calm -- 26.55 in899.1 mb - 0.00 in0.0 mm 0.00 in0.0 mm
04:40 AM 39.0°F3.9°C 34.6°F1.4°C 84% Calm Calm -- 26.55 in899.1 mb - 0.00 in0.0 mm 0.00 in0.0 mm
04:45 AM 39.0°F3.9°C 34.3°F1.3°C 83% Calm Calm -- 26.55 in899.1 mb - 0.00 in0.0 mm 0.00 in0.0 mm
04:50 AM 39.0°F3.9°C 34.3°F1.3°C 83% Calm Calm -- 26.55 in899.1 mb - 0.00 in0.0 mm 0.00 in0.0 mm
04:55 AM 40.0°F4.4°C 34.3°F1.3°C 80% Calm Calm -- 26.55 in899.1 mb - 0.00 in0.0 mm 0.00 in0.0 mm
05:00 AM 40.8°F4.9°C 34.5°F1.4°C 78% Calm Calm -- 26.56 in899.4 mb - 0.00 in0.0 mm 0.00 in0.0 mm
05:10 AM 41.0°F5.0°C 35.3°F1.8°C 80% Calm Calm -- 26.56 in899.4 mb - 0.00 in0.0 mm 0.00 in0.0 mm
05:15 AM 40.0°F4.4°C 34.9°F1.6°C 82% Calm Calm -- 26.55 in899.1 mb - 0.00 in0.0 mm 0.00 in0.0 mm
05:20 AM 40.0°F4.4°C 35.3°F1.8°C 83% Calm Calm -- 26.55 in899.1 mb - 0.00 in0.0 mm 0.00 in0.0 mm
05:25 AM 40.0°F4.4°C 35.6°F2.0°C 84% Calm Calm -- 26.55 in899.1 mb - 0.00 in0.0 mm 0.00 in0.0 mm
05:30 AM 40.0°F4.4°C 34.9°F1.6°C 82% Calm Calm -- 26.55 in899.1 mb - 0.00 in0.0 mm 0.00 in0.0 mm
05:35 AM 40.0°F4.4°C 34.9°F1.6°C 82% Calm Calm -- 26.55 in899.1 mb - 0.00 in0.0 mm 0.00 in0.0 mm
05:40 AM 40.0°F4.4°C 34.6°F1.4°C 81% Calm Calm -- 26.54 in898.7 mb - 0.00 in0.0 mm 0.00 in0.0 mm
05:45 AM 41.0°F5.0°C 35.9°F2.2°C 82% Calm Calm -- 26.54 in898.7 mb - 0.00 in0.0 mm 0.00 in0.0 mm
05:50 AM 41.0°F5.0°C 35.0°F1.7°C 79% Calm Calm -- 26.54 in898.7 mb - 0.00 in0.0 mm 0.00 in0.0 mm
05:55 AM 41.0°F5.0°C 35.6°F2.0°C 81% Calm Calm -- 26.54 in898.7 mb - 0.00 in0.0 mm 0.00 in0.0 mm
06:00 AM 42.0°F5.6°C 36.6°F2.6°C 81% Calm Calm -- 26.54 in898.7 mb - 0.00 in0.0 mm 0.00 in0.0 mm
06:10 AM 42.0°F5.6°C 36.3°F2.4°C 80% Calm Calm -- 26.54 in898.7 mb - 0.00 in0.0 mm 0.00 in0.0 mm
06:15 AM 42.0°F5.6°C 36.6°F2.6°C 81% Calm Calm -- 26.54 in898.7 mb - 0.00 in0.0 mm 0.00 in0.0 mm
06:20 AM 42.0°F5.6°C 35.3°F1.8°C 77% Calm Calm -- 26.54 in898.7 mb - 0.00 in0.0 mm 0.00 in0.0 mm
06:25 AM 42.0°F5.6°C 35.0°F1.7°C 76% Calm Calm -- 26.53 in898.4 mb - 0.00 in0.0 mm 0.00 in0.0 mm
06:30 AM 43.0°F6.1°C 36.6°F2.6°C 78% Calm Calm -- 26.53 in898.4 mb - 0.00 in0.0 mm 0.00 in0.0 mm
06:35 AM 43.0°F6.1°C 36.3°F2.4°C 77% Calm Calm -- 26.53 in898.4 mb - 0.00 in0.0 mm 0.00 in0.0 mm
06:40 AM 43.0°F6.1°C 35.3°F1.8°C 74% Calm Calm -- 26.53 in898.4 mb - 0.00 in0.0 mm 0.00 in0.0 mm
06:45 AM 43.0°F6.1°C 34.2°F1.2°C 71% Calm Calm -- 26.53 in898.4 mb - 0.00 in0.0 mm 0.00 in0.0 mm
06:50 AM 43.0°F6.1°C 34.6°F1.4°C 72% Calm Calm -- 26.52 in898.1 mb - 0.00 in0.0 mm 0.00 in0.0 mm
06:55 AM 43.0°F6.1°C 34.6°F1.4°C 72% Calm Calm -- 26.52 in898.1 mb - 0.00 in0.0 mm 0.00 in0.0 mm
07:00 AM 44.0°F6.7°C 34.5°F1.4°C 69% Calm Calm -- 26.52 in898.1 mb - 0.00 in0.0 mm 0.00 in0.0 mm
07:10 AM 44.0°F6.7°C 35.9°F2.2°C 73% Calm Calm -- 26.52 in898.1 mb - 0.00 in0.0 mm 0.00 in0.0 mm
07:15 AM 44.0°F6.7°C 35.9°F2.2°C 73% Calm Calm -- 26.52 in898.1 mb - 0.00 in0.0 mm 0.00 in0.0 mm
07:20 AM 46.0°F7.8°C 35.7°F2.1°C 67% Calm Calm -- 26.51 in897.7 mb - 0.00 in0.0 mm 0.00 in0.0 mm
07:25 AM 46.0°F7.8°C 33.3°F0.7°C 61% Calm Calm -- 26.51 in897.7 mb - 0.00 in0.0 mm 0.00 in0.0 mm
07:30 AM 47.0°F8.3°C 33.8°F1.0°C 60% Calm Calm -- 26.52 in898.1 mb - 0.00 in0.0 mm 0.00 in0.0 mm
07:35 AM 47.0°F8.3°C 34.2°F1.2°C 61% Calm Calm -- 26.52 in898.1 mb - 0.00 in0.0 mm 0.00 in0.0 mm
07:40 AM 47.0°F8.3°C 34.6°F1.4°C 62% Calm Calm -- 26.51 in897.7 mb - 0.00 in0.0 mm 0.00 in0.0 mm
07:45 AM 47.0°F8.3°C 34.6°F1.4°C 62% Calm Calm -- 26.51 in897.7 mb - 0.00 in0.0 mm 0.00 in0.0 mm
07:50 AM 47.0°F8.3°C 35.8°F2.1°C 65% Calm Calm -- 26.51 in897.7 mb - 0.00 in0.0 mm 0.00 in0.0 mm
07:55 AM 46.0°F7.8°C 35.3°F1.8°C 66% Calm Calm -- 26.51 in897.7 mb - 0.00 in0.0 mm 0.00 in0.0 mm
08:00 AM 47.0°F8.3°C 35.8°F2.1°C 65% Calm Calm -- 26.51 in897.7 mb - 0.00 in0.0 mm 0.00 in0.0 mm
08:10 AM 45.0°F7.2°C 36.9°F2.7°C 73% 3.5 mph N5.6 kmh N 3.5 mph5.6 kmh 26.51 in897.7 mb - 0.00 in0.0 mm 0.00 in0.0 mm
08:15 AM 44.0°F6.7°C 35.9°F2.2°C 73% 2.3 mph N3.7 kmh N 2.3 mph3.7 kmh 26.52 in898.1 mb - 0.00 in0.0 mm 0.00 in0.0 mm
08:20 AM 44.0°F6.7°C 34.8°F1.6°C 70% 1.2 mph N1.9 kmh N 1.2 mph1.9 kmh 26.52 in898.1 mb - 0.00 in0.0 mm 0.00 in0.0 mm
08:25 AM 44.0°F6.7°C 34.5°F1.4°C 69% 2.3 mph N3.7 kmh N 2.3 mph3.7 kmh 26.53 in898.4 mb - 0.00 in0.0 mm 0.00 in0.0 mm
08:30 AM 44.0°F6.7°C 34.5°F1.4°C 69% 1.2 mph N1.9 kmh N 2.3 mph3.7 kmh 26.53 in898.4 mb - 0.00 in0.0 mm 0.00 in0.0 mm
08:35 AM 44.0°F6.7°C 34.5°F1.4°C 69% 1.2 mph N1.9 kmh N 2.3 mph3.7 kmh 26.53 in898.4 mb - 0.00 in0.0 mm 0.00 in0.0 mm
08:40 AM 44.0°F6.7°C 35.9°F2.2°C 73% Calm Calm -- 26.53 in898.4 mb - 0.00 in0.0 mm 0.00 in0.0 mm
08:45 AM 44.0°F6.7°C 36.2°F2.3°C 74% Calm Calm 1.2 mph1.9 kmh 26.53 in898.4 mb - 0.00 in0.0 mm 0.00 in0.0 mm
08:50 AM 44.0°F6.7°C 36.6°F2.6°C 75% Calm Calm -- 26.53 in898.4 mb - 0.00 in0.0 mm 0.00 in0.0 mm
08:55 AM 44.0°F6.7°C 36.6°F2.6°C 75% Calm Calm -- 26.52 in898.1 mb - 0.00 in0.0 mm 0.00 in0.0 mm
09:00 AM 44.0°F6.7°C 36.6°F2.6°C 75% Calm Calm -- 26.52 in898.1 mb - 0.00 in0.0 mm 0.00 in0.0 mm
09:10 AM 44.0°F6.7°C 34.8°F1.6°C 70% Calm Calm -- 26.52 in898.1 mb - 0.00 in0.0 mm 0.00 in0.0 mm
09:15 AM 44.0°F6.7°C 35.6°F2.0°C 72% Calm Calm -- 26.53 in898.4 mb - 0.00 in0.0 mm 0.00 in0.0 mm
09:20 AM 45.0°F7.2°C 35.8°F2.1°C 70% Calm Calm -- 26.52 in898.1 mb - 0.00 in0.0 mm 0.00 in0.0 mm
09:25 AM 45.0°F7.2°C 35.8°F2.1°C 70% Calm Calm -- 26.52 in898.1 mb - 0.00 in0.0 mm 0.00 in0.0 mm
09:30 AM 45.0°F7.2°C 35.8°F2.1°C 70% Calm Calm -- 26.52 in898.1 mb - 0.00 in0.0 mm 0.00 in0.0 mm
09:35 AM 44.0°F6.7°C 35.6°F2.0°C 72% Calm Calm -- 26.52 in898.1 mb - 0.00 in0.0 mm 0.00 in0.0 mm
09:40 AM 45.0°F7.2°C 35.8°F2.1°C 70% Calm Calm -- 26.53 in898.4 mb - 0.00 in0.0 mm 0.00 in0.0 mm
09:45 AM 45.0°F7.2°C 35.4°F1.9°C 69% Calm Calm -- 26.53 in898.4 mb - 0.00 in0.0 mm 0.00 in0.0 mm
09:50 AM 45.0°F7.2°C 36.2°F2.3°C 71% Calm Calm -- 26.52 in898.1 mb - 0.00 in0.0 mm 0.00 in0.0 mm
09:55 AM 45.0°F7.2°C 36.5°F2.5°C 72% Calm Calm -- 26.52 in898.1 mb - 0.00 in0.0 mm 0.00 in0.0 mm
10:00 AM 45.0°F7.2°C 36.9°F2.7°C 73% Calm Calm -- 26.52 in898.1 mb - 0.00 in0.0 mm 0.00 in0.0 mm
10:10 AM 44.0°F6.7°C 35.6°F2.0°C 72% Calm Calm -- 26.53 in898.4 mb - 0.00 in0.0 mm 0.00 in0.0 mm
10:15 AM 44.9°F7.2°C 36.8°F2.7°C 73% Calm Calm -- 26.52 in898.1 mb - 0.00 in0.0 mm 0.00 in0.0 mm
10:20 AM 45.0°F7.2°C 36.9°F2.7°C 73% Calm Calm -- 26.52 in898.1 mb - 0.00 in0.0 mm 0.00 in0.0 mm
10:25 AM 45.0°F7.2°C 36.5°F2.5°C 72% Calm Calm 1.2 mph1.9 kmh 26.53 in898.4 mb - 0.00 in0.0 mm 0.00 in0.0 mm
10:30 AM 44.0°F6.7°C 36.6°F2.6°C 75% 1.2 mph N1.9 kmh N 1.2 mph1.9 kmh 26.53 in898.4 mb - 0.00 in0.0 mm 0.00 in0.0 mm
10:35 AM 44.0°F6.7°C 37.3°F2.9°C 77% Calm Calm -- 26.53 in898.4 mb - 0.00 in0.0 mm 0.00 in0.0 mm
10:40 AM 43.0°F6.1°C 36.0°F2.2°C 76% 1.2 mph N1.9 kmh N 1.2 mph1.9 kmh 26.53 in898.4 mb - 0.00 in0.0 mm 0.00 in0.0 mm
10:45 AM 43.0°F6.1°C 36.3°F2.4°C 77% 1.2 mph N1.9 kmh N 1.2 mph1.9 kmh 26.53 in898.4 mb - 0.00 in0.0 mm 0.00 in0.0 mm
10:50 AM 43.0°F6.1°C 36.9°F2.7°C 79% Calm Calm -- 26.54 in898.7 mb - 0.00 in0.0 mm 0.00 in0.0 mm
10:55 AM 43.0°F6.1°C 36.9°F2.7°C 79% Calm Calm -- 26.54 in898.7 mb - 0.00 in0.0 mm 0.00 in0.0 mm
11:00 AM 43.0°F6.1°C 37.3°F2.9°C 80% Calm Calm 1.2 mph1.9 kmh 26.53 in898.4 mb - 0.00 in0.0 mm 0.00 in0.0 mm
11:10 AM 43.0°F6.1°C 36.9°F2.7°C 79% Calm Calm -- 26.53 in898.4 mb - 0.00 in0.0 mm 0.00 in0.0 mm
11:15 AM 43.0°F6.1°C 36.6°F2.6°C 78% Calm Calm -- 26.53 in898.4 mb - 0.00 in0.0 mm 0.00 in0.0 mm
11:20 AM 43.0°F6.1°C 37.6°F3.1°C 81% Calm Calm -- 26.54 in898.7 mb - 0.00 in0.0 mm 0.00 in0.0 mm
11:25 AM 42.0°F5.6°C 36.3°F2.4°C 80% 1.2 mph N1.9 kmh N 2.3 mph3.7 kmh 26.53 in898.4 mb - 0.00 in0.0 mm 0.00 in0.0 mm
11:30 AM 42.0°F5.6°C 35.6°F2.0°C 78% Calm Calm -- 26.53 in898.4 mb - 0.00 in0.0 mm 0.00 in0.0 mm
11:35 AM 42.0°F5.6°C 36.0°F2.2°C 79% Calm Calm -- 26.53 in898.4 mb - 0.00 in0.0 mm 0.00 in0.0 mm
11:40 AM 42.0°F5.6°C 36.0°F2.2°C 79% Calm Calm -- 26.53 in898.4 mb - 0.00 in0.0 mm 0.00 in0.0 mm
11:45 AM 42.0°F5.6°C 36.0°F2.2°C 79% Calm Calm -- 26.53 in898.4 mb - 0.00 in0.0 mm 0.00 in0.0 mm
11:50 AM 42.0°F5.6°C 36.6°F2.6°C 81% Calm Calm -- 26.52 in898.1 mb - 0.00 in0.0 mm 0.00 in0.0 mm
11:55 AM 42.0°F5.6°C 36.0°F2.2°C 79% Calm Calm -- 26.52 in898.1 mb - 0.00 in0.0 mm 0.00 in0.0 mm
12:00 PM 43.0°F6.1°C 36.6°F2.6°C 78% Calm Calm -- 26.51 in897.7 mb - 0.00 in0.0 mm 0.00 in0.0 mm
12:10 PM 43.0°F6.1°C 36.9°F2.7°C 79% Calm Calm -- 26.51 in897.7 mb - 0.00 in0.0 mm 0.00 in0.0 mm
12:15 PM 43.0°F6.1°C 37.6°F3.1°C 81% Calm Calm -- 26.51 in897.7 mb - 0.00 in0.0 mm 0.00 in0.0 mm
12:20 PM 43.0°F6.1°C 38.2°F3.4°C 83% Calm Calm -- 26.50 in897.4 mb - 0.00 in0.0 mm 0.00 in0.0 mm
12:25 PM 43.0°F6.1°C 38.2°F3.4°C 83% Calm Calm 1.2 mph1.9 kmh 26.51 in897.7 mb - 0.00 in0.0 mm 0.00 in0.0 mm
12:30 PM 42.0°F5.6°C 36.9°F2.7°C 82% Calm Calm -- 26.51 in897.7 mb - 0.00 in0.0 mm 0.00 in0.0 mm
12:35 PM 42.0°F5.6°C 37.8°F3.2°C 85% Calm Calm 1.2 mph1.9 kmh 26.50 in897.4 mb - 0.00 in0.0 mm 0.00 in0.0 mm
12:40 PM 42.0°F5.6°C 38.1°F3.4°C 86% Calm Calm 1.2 mph1.9 kmh 26.49 in897.1 mb - 0.00 in0.0 mm 0.00 in0.0 mm
12:45 PM 42.0°F5.6°C 37.8°F3.2°C 85% Calm Calm -- 26.49 in897.1 mb - 0.00 in0.0 mm 0.00 in0.0 mm
12:50 PM 42.0°F5.6°C 37.5°F3.1°C 84% Calm Calm -- 26.49 in897.1 mb - 0.00 in0.0 mm 0.00 in0.0 mm
12:55 PM 42.0°F5.6°C 38.1°F3.4°C 86% Calm Calm -- 26.49 in897.1 mb - 0.00 in0.0 mm 0.00 in0.0 mm
01:00 PM 43.0°F6.1°C 38.5°F3.6°C 84% Calm Calm -- 26.49 in897.1 mb - 0.00 in0.0 mm 0.00 in0.0 mm
01:10 PM 43.0°F6.1°C 38.8°F3.8°C 85% Calm Calm -- 26.49 in897.1 mb - 0.00 in0.0 mm 0.00 in0.0 mm
01:15 PM 43.0°F6.1°C 39.4°F4.1°C 87% Calm Calm -- 26.48 in896.7 mb - 0.00 in0.0 mm 0.00 in0.0 mm
01:20 PM 43.0°F6.1°C 40.0°F4.4°C 89% Calm Calm -- 26.48 in896.7 mb - 0.00 in0.0 mm 0.00 in0.0 mm
01:25 PM 44.0°F6.7°C 41.3°F5.2°C 90% Calm Calm -- 26.47 in896.4 mb - 0.00 in0.0 mm 0.00 in0.0 mm
01:30 PM 44.0°F6.7°C 40.7°F4.8°C 88% Calm Calm -- 26.47 in896.4 mb - 0.00 in0.0 mm 0.00 in0.0 mm
01:35 PM 44.0°F6.7°C 40.4°F4.7°C 87% Calm Calm -- 26.47 in896.4 mb - 0.00 in0.0 mm 0.00 in0.0 mm
01:40 PM 44.0°F6.7°C 40.4°F4.7°C 87% Calm Calm -- 26.47 in896.4 mb - 0.00 in0.0 mm 0.00 in0.0 mm
01:45 PM 45.0°F7.2°C 41.1°F5.1°C 86% Calm Calm -- 26.47 in896.4 mb - 0.00 in0.0 mm 0.00 in0.0 mm
01:50 PM 45.0°F7.2°C 42.0°F5.6°C 89% Calm Calm -- 26.46 in896.0 mb - 0.00 in0.0 mm 0.00 in0.0 mm
01:55 PM 45.0°F7.2°C 41.4°F5.2°C 87% Calm Calm -- 26.46 in896.0 mb - 0.00 in0.0 mm 0.00 in0.0 mm
02:00 PM 45.0°F7.2°C 41.4°F5.2°C 87% Calm Calm -- 26.45 in895.7 mb - 0.00 in0.0 mm 0.00 in0.0 mm
02:10 PM 45.0°F7.2°C 41.7°F5.4°C 88% Calm Calm -- 26.45 in895.7 mb - 0.00 in0.0 mm 0.00 in0.0 mm
02:15 PM 45.0°F7.2°C 41.1°F5.1°C 86% Calm Calm -- 26.44 in895.4 mb - 0.00 in0.0 mm 0.00 in0.0 mm
02:20 PM 45.0°F7.2°C 41.4°F5.2°C 87% Calm Calm -- 26.45 in895.7 mb - 0.00 in0.0 mm 0.00 in0.0 mm
02:25 PM 45.0°F7.2°C 41.1°F5.1°C 86% Calm Calm -- 26.44 in895.4 mb - 0.00 in0.0 mm 0.00 in0.0 mm
02:30 PM 44.4°F6.9°C 40.2°F4.6°C 85% Calm Calm -- 26.45 in895.7 mb - 0.00 in0.0 mm 0.00 in0.0 mm
02:35 PM 44.0°F6.7°C 39.5°F4.2°C 84% Calm Calm -- 26.45 in895.7 mb - 0.00 in0.0 mm 0.00 in0.0 mm
02:40 PM 44.0°F6.7°C 41.5°F5.3°C 91% Calm Calm -- 26.44 in895.4 mb - 0.00 in0.0 mm 0.00 in0.0 mm
02:45 PM 44.0°F6.7°C 41.3°F5.2°C 90% Calm Calm -- 26.44 in895.4 mb - 0.00 in0.0 mm 0.00 in0.0 mm
02:50 PM 44.0°F6.7°C 41.5°F5.3°C 91% Calm Calm -- 26.44 in895.4 mb - 0.00 in0.0 mm 0.00 in0.0 mm
02:55 PM 43.0°F6.1°C 40.6°F4.8°C 91% Calm Calm -- 26.44 in895.4 mb - 0.00 in0.0 mm 0.00 in0.0 mm
03:00 PM 43.0°F6.1°C 40.8°F4.9°C 92% Calm Calm -- 26.45 in895.7 mb - 0.00 in0.0 mm 0.00 in0.0 mm
03:10 PM 43.0°F6.1°C 40.8°F4.9°C 92% Calm Calm -- 26.44 in895.4 mb - 0.00 in0.0 mm 0.00 in0.0 mm
03:15 PM 43.0°F6.1°C 40.8°F4.9°C 92% Calm Calm -- 26.44 in895.4 mb - 0.00 in0.0 mm 0.00 in0.0 mm
03:20 PM 43.0°F6.1°C 41.4°F5.2°C 94% Calm Calm -- 26.44 in895.4 mb - 0.00 in0.0 mm 0.00 in0.0 mm
03:25 PM 43.0°F6.1°C 41.4°F5.2°C 94% Calm Calm -- 26.44 in895.4 mb - 0.00 in0.0 mm 0.00 in0.0 mm
03:30 PM 42.2°F5.7°C 40.4°F4.7°C 93% 1.2 mph N1.9 kmh N 1.2 mph1.9 kmh 26.44 in895.4 mb - 0.00 in0.0 mm 0.00 in0.0 mm
03:35 PM 42.0°F5.6°C 40.1°F4.5°C 93% 1.2 mph N1.9 kmh N 1.2 mph1.9 kmh 26.44 in895.4 mb - 0.00 in0.0 mm 0.00 in0.0 mm
03:40 PM 42.0°F5.6°C 40.7°F4.8°C 95% Calm Calm 1.2 mph1.9 kmh 26.43 in895.0 mb - 0.00 in0.0 mm 0.00 in0.0 mm
03:45 PM 42.0°F5.6°C 40.4°F4.7°C 94% 1.2 mph N1.9 kmh N 1.2 mph1.9 kmh 26.44 in895.4 mb - 0.00 in0.0 mm 0.00 in0.0 mm
03:50 PM 42.0°F5.6°C 40.7°F4.8°C 95% 2.3 mph N3.7 kmh N 3.5 mph5.6 kmh 26.43 in895.0 mb - 0.00 in0.0 mm 0.00 in0.0 mm
03:55 PM 41.0°F5.0°C 39.7°F4.3°C 95% 1.2 mph N1.9 kmh N 1.2 mph1.9 kmh 26.44 in895.4 mb - 0.00 in0.0 mm 0.00 in0.0 mm
04:00 PM 41.0°F5.0°C 39.9°F4.4°C 96% 1.2 mph N1.9 kmh N 1.2 mph1.9 kmh 26.43 in895.0 mb - 0.00 in0.0 mm 0.00 in0.0 mm
04:10 PM 41.0°F5.0°C 40.2°F4.6°C 97% 1.2 mph N1.9 kmh N 1.2 mph1.9 kmh 26.43 in895.0 mb - 0.00 in0.0 mm 0.00 in0.0 mm
04:15 PM 41.0°F5.0°C 40.2°F4.6°C 97% 2.3 mph N3.7 kmh N 2.3 mph3.7 kmh 26.43 in895.0 mb - 0.00 in0.0 mm 0.00 in0.0 mm
04:20 PM 41.0°F5.0°C 40.2°F4.6°C 97% Calm Calm -- 26.42 in894.7 mb - 0.00 in0.0 mm 0.00 in0.0 mm
04:25 PM 41.0°F5.0°C 40.2°F4.6°C 97% 3.5 mph N5.6 kmh N 3.5 mph5.6 kmh 26.42 in894.7 mb - 0.00 in0.0 mm 0.00 in0.0 mm
04:30 PM 41.0°F5.0°C 40.2°F4.6°C 97% 2.3 mph N3.7 kmh N 3.5 mph5.6 kmh 26.43 in895.0 mb - 0.00 in0.0 mm 0.00 in0.0 mm
04:35 PM 41.0°F5.0°C 40.2°F4.6°C 97% 2.3 mph N3.7 kmh N 5.8 mph9.3 kmh 26.43 in895.0 mb - 0.00 in0.0 mm 0.00 in0.0 mm
04:40 PM 41.0°F5.0°C 40.2°F4.6°C 97% 3.5 mph N5.6 kmh N 5.8 mph9.3 kmh 26.42 in894.7 mb - 0.00 in0.0 mm 0.00 in0.0 mm
04:45 PM 42.0°F5.6°C 41.2°F5.1°C 97% Calm Calm 1.2 mph1.9 kmh 26.42 in894.7 mb - 0.00 in0.0 mm 0.00 in0.0 mm
04:50 PM 42.0°F5.6°C 41.2°F5.1°C 97% Calm Calm 1.2 mph1.9 kmh 26.42 in894.7 mb - 0.00 in0.0 mm 0.00 in0.0 mm
04:55 PM 42.0°F5.6°C 41.2°F5.1°C 97% 1.2 mph N1.9 kmh N 1.2 mph1.9 kmh 26.42 in894.7 mb - 0.00 in0.0 mm 0.00 in0.0 mm
05:00 PM 42.0°F5.6°C 40.9°F4.9°C 96% 2.3 mph N3.7 kmh N 3.5 mph5.6 kmh 26.42 in894.7 mb - 0.00 in0.0 mm 0.00 in0.0 mm
05:10 PM 42.0°F5.6°C 40.9°F4.9°C 96% 2.3 mph N3.7 kmh N 3.5 mph5.6 kmh 26.42 in894.7 mb - 0.00 in0.0 mm 0.00 in0.0 mm
05:15 PM 42.0°F5.6°C 41.2°F5.1°C 97% 2.3 mph NNW3.7 kmh NNW 3.5 mph5.6 kmh 26.43 in895.0 mb - 0.00 in0.0 mm 0.00 in0.0 mm
05:20 PM 42.0°F5.6°C 40.9°F4.9°C 96% 2.3 mph N3.7 kmh N 3.5 mph5.6 kmh 26.42 in894.7 mb - 0.00 in0.0 mm 0.00 in0.0 mm
05:25 PM 42.0°F5.6°C 40.9°F4.9°C 96% 2.3 mph N3.7 kmh N 3.5 mph5.6 kmh 26.42 in894.7 mb - 0.00 in0.0 mm 0.00 in0.0 mm
05:30 PM 42.0°F5.6°C 41.2°F5.1°C 97% 2.3 mph N3.7 kmh N 2.3 mph3.7 kmh 26.42 in894.7 mb - 0.00 in0.0 mm 0.00 in0.0 mm
05:35 PM 42.0°F5.6°C 41.2°F5.1°C 97% 1.2 mph N1.9 kmh N 2.3 mph3.7 kmh 26.43 in895.0 mb - 0.00 in0.0 mm 0.00 in0.0 mm
05:40 PM 42.0°F5.6°C 41.2°F5.1°C 97% Calm Calm 1.2 mph1.9 kmh 26.43 in895.0 mb - 0.00 in0.0 mm 0.00 in0.0 mm
05:45 PM 42.0°F5.6°C 41.2°F5.1°C 97% 3.5 mph N5.6 kmh N 3.5 mph5.6 kmh 26.42 in894.7 mb - 0.00 in0.0 mm 0.00 in0.0 mm
05:50 PM 42.0°F5.6°C 40.9°F4.9°C 96% 4.6 mph N7.4 kmh N 6.9 mph11.1 kmh 26.42 in894.7 mb - 0.00 in0.0 mm 0.00 in0.0 mm
05:55 PM 42.0°F5.6°C 40.9°F4.9°C 96% 2.3 mph N3.7 kmh N 3.5 mph5.6 kmh 26.41 in894.3 mb - 0.00 in0.0 mm 0.00 in0.0 mm
06:00 PM 42.0°F5.6°C 40.9°F4.9°C 96% Calm Calm 1.2 mph1.9 kmh 26.41 in894.3 mb - 0.00 in0.0 mm 0.00 in0.0 mm
06:10 PM 42.0°F5.6°C 40.9°F4.9°C 96% 3.5 mph 5.6 kmh 3.5 mph5.6 kmh 26.41 in894.3 mb - 0.00 in0.0 mm 0.00 in0.0 mm
06:15 PM 41.0°F5.0°C 39.9°F4.4°C 96% 3.5 mph N5.6 kmh N 6.9 mph11.1 kmh 26.41 in894.3 mb - 0.00 in0.0 mm 0.00 in0.0 mm
06:20 PM 41.0°F5.0°C 40.2°F4.6°C 97% 2.3 mph N3.7 kmh N 3.5 mph5.6 kmh 26.41 in894.3 mb - 0.00 in0.0 mm 0.00 in0.0 mm
06:25 PM 41.0°F5.0°C 40.2°F4.6°C 97% Calm Calm -- 26.40 in894.0 mb - 0.00 in0.0 mm 0.00 in0.0 mm
06:30 PM 41.0°F5.0°C 40.2°F4.6°C 97% Calm Calm -- 26.41 in894.3 mb - 0.00 in0.0 mm 0.00 in0.0 mm
06:35 PM 41.0°F5.0°C 39.9°F4.4°C 96% 1.2 mph N1.9 kmh N 3.5 mph5.6 kmh 26.41 in894.3 mb - 0.00 in0.0 mm 0.00 in0.0 mm
06:40 PM 41.0°F5.0°C 39.9°F4.4°C 96% 1.2 mph N1.9 kmh N 3.5 mph5.6 kmh 26.41 in894.3 mb - 0.00 in0.0 mm 0.00 in0.0 mm
06:45 PM 41.0°F5.0°C 39.9°F4.4°C 96% 3.5 mph N5.6 kmh N 3.5 mph5.6 kmh 26.41 in894.3 mb - 0.00 in0.0 mm 0.00 in0.0 mm
06:50 PM 41.0°F5.0°C 39.9°F4.4°C 96% 3.5 mph N5.6 kmh N 3.5 mph5.6 kmh 26.41 in894.3 mb - 0.00 in0.0 mm 0.00 in0.0 mm
06:55 PM 41.0°F5.0°C 39.9°F4.4°C 96% Calm Calm 1.2 mph1.9 kmh 26.41 in894.3 mb - 0.00 in0.0 mm 0.00 in0.0 mm
07:00 PM 41.0°F5.0°C 39.9°F4.4°C 96% 2.3 mph N3.7 kmh N 2.3 mph3.7 kmh 26.41 in894.3 mb - 0.00 in0.0 mm 0.00 in0.0 mm
07:10 PM 41.0°F5.0°C 39.9°F4.4°C 96% 2.3 mph N3.7 kmh N 3.5 mph5.6 kmh 26.41 in894.3 mb - 0.00 in0.0 mm 0.00 in0.0 mm
07:15 PM 41.0°F5.0°C 39.9°F4.4°C 96% 2.3 mph N3.7 kmh N 3.5 mph5.6 kmh 26.41 in894.3 mb - 0.00 in0.0 mm 0.00 in0.0 mm
07:20 PM 41.0°F5.0°C 39.9°F4.4°C 96% Calm Calm -- 26.40 in894.0 mb - 0.00 in0.0 mm 0.00 in0.0 mm
07:25 PM 41.0°F5.0°C 40.2°F4.6°C 97% 2.3 mph N3.7 kmh N 2.3 mph3.7 kmh 26.41 in894.3 mb - 0.00 in0.0 mm 0.00 in0.0 mm
07:30 PM 41.0°F5.0°C 40.2°F4.6°C 97% 2.3 mph N3.7 kmh N 3.5 mph5.6 kmh 26.41 in894.3 mb - 0.00 in0.0 mm 0.00 in0.0 mm
07:35 PM 41.0°F5.0°C 40.2°F4.6°C 97% 2.3 mph N3.7 kmh N 3.5 mph5.6 kmh 26.41 in894.3 mb - 0.00 in0.0 mm 0.00 in0.0 mm
07:40 PM 41.0°F5.0°C 40.2°F4.6°C 97% 3.5 mph N5.6 kmh N 3.5 mph5.6 kmh 26.40 in894.0 mb - 0.00 in0.0 mm 0.00 in0.0 mm
07:45 PM 41.0°F5.0°C 40.5°F4.7°C 98% 2.3 mph N3.7 kmh N 2.3 mph3.7 kmh 26.40 in894.0 mb - 0.00 in0.0 mm 0.00 in0.0 mm
07:50 PM 41.0°F5.0°C 40.5°F4.7°C 98% 1.2 mph N1.9 kmh N 2.3 mph3.7 kmh 26.40 in894.0 mb - 0.00 in0.0 mm 0.00 in0.0 mm
07:55 PM 41.0°F5.0°C 40.5°F4.7°C 98% Calm Calm -- 26.39 in893.7 mb - 0.00 in0.0 mm 0.00 in0.0 mm
08:00 PM 41.0°F5.0°C 40.5°F4.7°C 98% 1.2 mph N1.9 kmh N 1.2 mph1.9 kmh 26.40 in894.0 mb - 0.00 in0.0 mm 0.00 in0.0 mm
08:10 PM 41.0°F5.0°C 40.5°F4.7°C 98% 1.2 mph N1.9 kmh N 2.3 mph3.7 kmh 26.40 in894.0 mb - 0.00 in0.0 mm 0.00 in0.0 mm
08:15 PM 41.0°F5.0°C 40.5°F4.7°C 98% 1.2 mph NNE1.9 kmh NNE 2.3 mph3.7 kmh 26.41 in894.3 mb - 0.00 in0.0 mm 0.00 in0.0 mm
08:20 PM 41.0°F5.0°C 40.5°F4.7°C 98% Calm Calm -- 26.40 in894.0 mb - 0.00 in0.0 mm 0.00 in0.0 mm
08:25 PM 41.0°F5.0°C 40.5°F4.7°C 98% 1.2 mph N1.9 kmh N 2.3 mph3.7 kmh 26.40 in894.0 mb - 0.00 in0.0 mm 0.00 in0.0 mm
08:30 PM 41.0°F5.0°C 40.5°F4.7°C 98% Calm Calm -- 26.40 in894.0 mb - 0.00 in0.0 mm 0.00 in0.0 mm
08:35 PM 41.0°F5.0°C 40.5°F4.7°C 98% Calm Calm 1.2 mph1.9 kmh 26.40 in894.0 mb - 0.00 in0.0 mm 0.00 in0.0 mm
08:40 PM 41.0°F5.0°C 40.5°F4.7°C 98% Calm Calm 3.5 mph5.6 kmh 26.40 in894.0 mb - 0.00 in0.0 mm 0.00 in0.0 mm
08:45 PM 41.0°F5.0°C 40.5°F4.7°C 98% 2.3 mph N3.7 kmh N 3.5 mph5.6 kmh 26.40 in894.0 mb - 0.00 in0.0 mm 0.00 in0.0 mm
08:50 PM 41.0°F5.0°C 40.5°F4.7°C 98% Calm Calm 1.2 mph1.9 kmh 26.40 in894.0 mb - 0.00 in0.0 mm 0.00 in0.0 mm
08:55 PM 41.0°F5.0°C 40.5°F4.7°C 98% 1.2 mph N1.9 kmh N 2.3 mph3.7 kmh 26.40 in894.0 mb - 0.00 in0.0 mm 0.00 in0.0 mm
09:00 PM 41.0°F5.0°C 40.5°F4.7°C 98% Calm Calm 1.2 mph1.9 kmh 26.40 in894.0 mb - 0.00 in0.0 mm 0.00 in0.0 mm
09:10 PM 41.0°F5.0°C 40.5°F4.7°C 98% Calm Calm 1.2 mph1.9 kmh 26.39 in893.7 mb - 0.00 in0.0 mm 0.00 in0.0 mm
09:15 PM 41.0°F5.0°C 40.5°F4.7°C 98% Calm Calm 3.5 mph5.6 kmh 26.39 in893.7 mb - 0.00 in0.0 mm 0.00 in0.0 mm
09:20 PM 41.0°F5.0°C 40.5°F4.7°C 98% 2.3 mph N3.7 kmh N 3.5 mph5.6 kmh 26.39 in893.7 mb - 0.00 in0.0 mm 0.00 in0.0 mm
09:25 PM 41.0°F5.0°C 40.5°F4.7°C 98% 1.2 mph N1.9 kmh N 1.2 mph1.9 kmh 26.40 in894.0 mb - 0.00 in0.0 mm 0.00 in0.0 mm
09:30 PM 41.0°F5.0°C 40.5°F4.7°C 98% 1.2 mph N1.9 kmh N 2.3 mph3.7 kmh 26.39 in893.7 mb - 0.00 in0.0 mm 0.00 in0.0 mm
09:35 PM 41.0°F5.0°C 40.5°F4.7°C 98% 1.2 mph N1.9 kmh N 2.3 mph3.7 kmh 26.39 in893.7 mb - 0.00 in0.0 mm 0.00 in0.0 mm
09:40 PM 41.0°F5.0°C 40.5°F4.7°C 98% 1.2 mph N1.9 kmh N 2.3 mph3.7 kmh 26.39 in893.7 mb - 0.00 in0.0 mm 0.00 in0.0 mm
09:45 PM 41.0°F5.0°C 40.5°F4.7°C 98% Calm Calm 2.3 mph3.7 kmh 26.39 in893.7 mb - 0.00 in0.0 mm 0.00 in0.0 mm
09:50 PM 41.0°F5.0°C 40.5°F4.7°C 98% Calm Calm -- 26.39 in893.7 mb - 0.00 in0.0 mm 0.00 in0.0 mm
09:55 PM 41.0°F5.0°C 40.5°F4.7°C 98% Calm Calm 1.2 mph1.9 kmh 26.38 in893.3 mb - 0.00 in0.0 mm 0.00 in0.0 mm
10:00 PM 41.0°F5.0°C 40.5°F4.7°C 98% Calm Calm -- 26.39 in893.7 mb - 0.00 in0.0 mm 0.00 in0.0 mm
10:10 PM 41.0°F5.0°C 40.5°F4.7°C 98% 2.3 mph N3.7 kmh N 2.3 mph3.7 kmh 26.38 in893.3 mb - 0.00 in0.0 mm 0.00 in0.0 mm
10:15 PM 41.0°F5.0°C 40.5°F4.7°C 98% Calm Calm -- 26.37 in893.0 mb - 0.00 in0.0 mm 0.00 in0.0 mm
10:20 PM 41.0°F5.0°C 40.5°F4.7°C 98% Calm Calm -- 26.36 in892.7 mb - 0.00 in0.0 mm 0.00 in0.0 mm
10:25 PM 41.0°F5.0°C 40.5°F4.7°C 98% Calm Calm -- 26.36 in892.7 mb - 0.00 in0.0 mm 0.00 in0.0 mm
10:30 PM 41.0°F5.0°C 40.5°F4.7°C 98% Calm Calm 1.2 mph1.9 kmh 26.37 in893.0 mb - 0.00 in0.0 mm 0.00 in0.0 mm
10:35 PM 41.0°F5.0°C 39.9°F4.4°C 96% 2.3 mph N3.7 kmh N 3.5 mph5.6 kmh 26.36 in892.7 mb - 0.00 in0.0 mm 0.00 in0.0 mm
10:40 PM 41.0°F5.0°C 39.7°F4.3°C 95% Calm Calm 1.2 mph1.9 kmh 26.36 in892.7 mb - 0.00 in0.0 mm 0.00 in0.0 mm
10:45 PM 41.0°F5.0°C 39.9°F4.4°C 96% 1.2 mph N1.9 kmh N 1.2 mph1.9 kmh 26.37 in893.0 mb - 0.00 in0.0 mm 0.00 in0.0 mm
10:50 PM 41.0°F5.0°C 40.2°F4.6°C 97% 1.2 mph N1.9 kmh N 2.3 mph3.7 kmh 26.37 in893.0 mb - 0.00 in0.0 mm 0.00 in0.0 mm
10:55 PM 41.0°F5.0°C 40.2°F4.6°C 97% 1.2 mph N1.9 kmh N 3.5 mph5.6 kmh 26.36 in892.7 mb - 0.00 in0.0 mm 0.00 in0.0 mm
11:00 PM 41.0°F5.0°C 40.2°F4.6°C 97% 2.3 mph N3.7 kmh N 3.5 mph5.6 kmh 26.36 in892.7 mb - 0.00 in0.0 mm 0.00 in0.0 mm
11:10 PM 41.0°F5.0°C 40.2°F4.6°C 97% Calm Calm 1.2 mph1.9 kmh 26.37 in893.0 mb - 0.00 in0.0 mm 0.00 in0.0 mm
11:15 PM 41.0°F5.0°C 40.2°F4.6°C 97% Calm Calm 1.2 mph1.9 kmh 26.36 in892.7 mb - 0.00 in0.0 mm 0.00 in0.0 mm
11:20 PM 41.0°F5.0°C 40.5°F4.7°C 98% Calm Calm -- 26.36 in892.7 mb - 0.00 in0.0 mm 0.00 in0.0 mm
11:25 PM 41.0°F5.0°C 40.5°F4.7°C 98% 1.2 mph N1.9 kmh N 2.3 mph3.7 kmh 26.36 in892.7 mb - 0.00 in0.0 mm 0.00 in0.0 mm
11:30 PM 41.0°F5.0°C 40.5°F4.7°C 98% 1.2 mph N1.9 kmh N 2.3 mph3.7 kmh 26.36 in892.7 mb - 0.00 in0.0 mm 0.00 in0.0 mm
11:35 PM 40.0°F4.4°C 39.5°F4.2°C 98% 1.2 mph N1.9 kmh N 1.2 mph1.9 kmh 26.36 in892.7 mb - 0.00 in0.0 mm 0.00 in0.0 mm
11:40 PM 40.0°F4.4°C 39.5°F4.2°C 98% Calm Calm -- 26.36 in892.7 mb - 0.00 in0.0 mm 0.00 in0.0 mm
11:45 PM 40.0°F4.4°C 39.5°F4.2°C 98% Calm Calm -- 26.36 in892.7 mb - 0.00 in0.0 mm 0.00 in0.0 mm
11:50 PM 40.0°F4.4°C 39.5°F4.2°C 98% 1.2 mph N1.9 kmh N 2.3 mph3.7 kmh 26.36 in892.7 mb - 0.00 in0.0 mm 0.00 in0.0 mm
11:55 PM 40.0°F4.4°C 39.5°F4.2°C 98% 1.2 mph N1.9 kmh N 2.3 mph3.7 kmh 26.36 in892.7 mb - 0.00 in0.0 mm 0.00 in0.0 mm